»·PEaware :: EAW174 KPHX-KLAS

EAW174 :: KPHX-KLAS

FLIGHT INFORMATION

Flight Status: Arrived
Operator: Unknown
More flights by this operator :: More flights under this callsign
Pilot: Dave P. (45)
Aircraft: BOEING 737-800
(B738)
More flights by this aircraft type
Origin: KPHX Phoenix Sky Harbor Intl
United States
Destination: KLAS McCarran Intl
United States
More flights between these airports :: More routes between these airports
Route: +MAYSA5 SISIE IGM TYSSN5
File this flight plan on PilotEdge
Remarks: EAW = Eagle Airways, callsign is "EAGLE"
Altitude:
(Current/Filed)
28,000ft
Speed:
(Current/Filed)
476kts
Departed: 15-Apr-18 09:27 AM
Arrived: 15-Apr-18 10:15 AM
Distance/Time
Traveled:
222nm/0:48
Distance/Time
To Go:
Arrived

Flight Plot

Page will automatically refresh every two minutes.

Flight plan parsing failed; only flown route is shown


Map Options




Map Legend


Flown Route
Filed Route
Departure Airport
Arrival Airport
Navaid (VOR, NDB)
Fix

Horizontal Profiles

Position Reports

Time Latitude Longitude Heading Altitude Ground
Speed
15-Apr-18 08:23 33.434778 -112.013100 303 1143ft 0kts
15-Apr-18 08:24 33.434778 -112.013100 303 1143ft 0kts
15-Apr-18 08:25 33.434778 -112.013100 303 1143ft 0kts
15-Apr-18 08:26 33.434778 -112.013100 303 1143ft 0kts
15-Apr-18 08:27 33.434778 -112.013100 303 1143ft 0kts
15-Apr-18 08:28 33.434778 -112.013100 303 1143ft 0kts
15-Apr-18 08:29 33.434778 -112.013100 303 1143ft 0kts
15-Apr-18 08:30 33.434778 -112.013100 303 1143ft 0kts
15-Apr-18 08:31 33.434778 -112.013100 303 1143ft 0kts
15-Apr-18 08:32 33.434778 -112.013100 303 1143ft 0kts
15-Apr-18 08:33 33.434778 -112.013100 303 1143ft 0kts
15-Apr-18 08:34 33.434778 -112.013100 303 1143ft 0kts
15-Apr-18 08:35 33.434778 -112.013100 303 1143ft 0kts
15-Apr-18 08:36 33.434778 -112.013100 303 1143ft 0kts
15-Apr-18 08:37 33.434778 -112.013100 303 1143ft 0kts
15-Apr-18 08:38 33.434778 -112.013100 303 1143ft 0kts
15-Apr-18 08:39 33.434778 -112.013100 303 1143ft 0kts
15-Apr-18 08:40 33.434778 -112.013100 303 1143ft 0kts
15-Apr-18 08:41 33.434778 -112.013100 303 1143ft 0kts
15-Apr-18 08:42 33.434778 -112.013100 303 1143ft 0kts
15-Apr-18 08:43 33.434778 -112.013100 303 1143ft 0kts
15-Apr-18 08:44 33.434778 -112.013100 303 1143ft 0kts
15-Apr-18 08:45 33.434778 -112.013100 303 1143ft 0kts
15-Apr-18 08:46 33.434778 -112.013100 303 1143ft 0kts
15-Apr-18 08:47 33.434778 -112.013100 303 1143ft 0kts
15-Apr-18 08:48 33.434778 -112.013100 303 1143ft 0kts
15-Apr-18 08:49 33.434778 -112.013100 303 1143ft 0kts
15-Apr-18 08:50 33.434778 -112.013100 303 1143ft 0kts
15-Apr-18 08:51 33.434778 -112.013100 303 1143ft 0kts
15-Apr-18 08:52 33.434778 -112.013100 303 1143ft 0kts
15-Apr-18 08:53 33.434778 -112.013100 303 1143ft 0kts
15-Apr-18 08:54 33.434778 -112.013100 303 1143ft 0kts
15-Apr-18 08:55 33.434778 -112.013100 303 1143ft 0kts
15-Apr-18 08:56 33.434778 -112.013100 303 1143ft 0kts
15-Apr-18 08:57 33.434778 -112.013100 303 1143ft 0kts
15-Apr-18 08:58 33.434778 -112.013100 303 1143ft 0kts
15-Apr-18 08:59 33.434778 -112.013100 303 1143ft 0kts
15-Apr-18 09:00 33.434778 -112.013100 303 1143ft 0kts
15-Apr-18 09:01 33.434778 -112.013100 303 1143ft 0kts
15-Apr-18 09:02 33.434778 -112.013100 303 1143ft 0kts
15-Apr-18 09:03 33.434778 -112.013100 303 1143ft 0kts
15-Apr-18 09:04 33.434778 -112.013100 303 1143ft 0kts
15-Apr-18 09:05 33.434778 -112.013100 303 1143ft 0kts
15-Apr-18 09:06 33.434778 -112.013100 303 1143ft 0kts
15-Apr-18 09:07 33.434778 -112.013100 303 1143ft 0kts
15-Apr-18 09:08 33.434778 -112.013100 303 1143ft 0kts
15-Apr-18 09:09 33.434778 -112.013100 303 1143ft 0kts
15-Apr-18 09:10 33.434778 -112.013100 303 1143ft 0kts
15-Apr-18 09:11 33.434778 -112.013100 303 1143ft 0kts
15-Apr-18 09:12 33.434778 -112.013100 303 1143ft 0kts
15-Apr-18 09:13 33.434778 -112.013100 303 1143ft 0kts
15-Apr-18 09:14 33.434778 -112.013100 303 1143ft 0kts
15-Apr-18 09:15 33.434778 -112.013100 303 1143ft 0kts
15-Apr-18 09:16 33.434757 -112.013063 303 1143ft 1kts
15-Apr-18 09:17 33.434698 -112.012210 239 1143ft 2kts
15-Apr-18 09:18 33.434741 -112.012132 234 1143ft 0kts
15-Apr-18 09:19 33.434089 -112.012267 189 1143ft 10kts
15-Apr-18 09:20 33.433509 -112.012378 188 1143ft 0kts
15-Apr-18 09:21 33.432163 -112.012298 236 1143ft 8kts
15-Apr-18 09:22 33.432116 -112.016668 269 1143ft 16kts
15-Apr-18 09:23 33.432114 -112.021399 270 1143ft 22kts
15-Apr-18 09:24 33.431999 -112.026850 224 1142ft 3kts
15-Apr-18 09:25 33.431284 -112.026992 179 1143ft 7kts
15-Apr-18 09:26 33.431029 -112.014684 90 1143ft 120kts
15-Apr-18 09:27 33.432257 -111.961691 86 2962ft 172kts
15-Apr-18 09:28 33.436532 -111.889358 74 4479ft 258kts
15-Apr-18 09:29 33.497729 -111.847486 5 7376ft 282kts
15-Apr-18 09:30 33.578623 -111.842051 3 10197ft 299kts
15-Apr-18 09:31 33.652626 -111.837521 357 11541ft 348kts
15-Apr-18 09:32 33.745595 -111.876997 311 13738ft 366kts
15-Apr-18 09:33 33.808647 -111.974544 304 16627ft 371kts
15-Apr-18 09:34 33.870538 -112.075408 304 19152ft 380kts
15-Apr-18 09:35 33.933914 -112.179521 303 21361ft 389kts
15-Apr-18 09:36 33.998412 -112.286076 303 23289ft 398kts
15-Apr-18 09:37 34.076519 -112.383423 316 24981ft 412kts
15-Apr-18 09:38 34.165669 -112.473232 316 26547ft 420kts
15-Apr-18 09:39 34.255121 -112.563621 315 28169ft 419kts
15-Apr-18 09:40 34.344508 -112.653686 315 28207ft 416kts
15-Apr-18 09:41 34.433517 -112.743830 315 28215ft 416kts
15-Apr-18 09:42 34.522195 -112.834209 315 28215ft 417kts
15-Apr-18 09:43 34.610009 -112.926373 312 28208ft 416kts
15-Apr-18 09:44 34.695781 -113.020505 312 28212ft 416kts
15-Apr-18 09:45 34.781853 -113.114581 312 28207ft 416kts
15-Apr-18 09:46 34.868060 -113.209220 312 28195ft 417kts
15-Apr-18 09:47 34.953706 -113.303808 311 28186ft 415kts
15-Apr-18 09:48 35.019894 -113.415942 296 28177ft 406kts
15-Apr-18 09:49 35.076280 -113.535574 295 28170ft 406kts
15-Apr-18 09:50 35.131225 -113.653116 295 28167ft 389kts
15-Apr-18 09:51 35.183529 -113.766235 294 27061ft 372kts
15-Apr-18 09:52 35.233502 -113.875111 294 25190ft 362kts
15-Apr-18 09:53 35.298850 -113.968967 315 23204ft 377kts
15-Apr-18 09:54 35.382052 -114.046897 317 21045ft 374kts
15-Apr-18 09:55 35.462882 -114.122304 317 18919ft 352kts
15-Apr-18 09:56 35.538085 -114.192123 317 16983ft 328kts
15-Apr-18 09:57 35.608811 -114.258171 317 15235ft 310kts
15-Apr-18 09:58 35.676541 -114.321664 318 13593ft 302kts
15-Apr-18 09:59 35.744612 -114.382918 327 12054ft 298kts
15-Apr-18 10:00 35.816662 -114.418392 335 11479ft 256kts
15-Apr-18 10:01 35.877908 -114.446362 334 11059ft 219kts
15-Apr-18 10:02 35.934744 -114.473300 335 10692ft 221kts
15-Apr-18 10:03 35.992146 -114.500323 335 10304ft 221kts
15-Apr-18 10:04 36.039332 -114.540878 288 9559ft 206kts
15-Apr-18 10:05 36.053081 -114.609977 278 8191ft 205kts
15-Apr-18 10:06 36.064821 -114.678548 279 6899ft 202kts
15-Apr-18 10:07 36.073836 -114.746622 267 5544ft 198kts
15-Apr-18 10:08 36.073751 -114.813690 267 4998ft 197kts
15-Apr-18 10:09 36.073853 -114.882734 267 4990ft 198kts
15-Apr-18 10:10 36.073804 -114.951528 267 4893ft 200kts
15-Apr-18 10:11 36.073745 -115.020357 267 3843ft 191kts
15-Apr-18 10:12 36.073695 -115.080209 268 2918ft 163kts
15-Apr-18 10:13 36.073642 -115.136119 270 2189ft 143kts
15-Apr-18 10:14 36.074508 -115.150066 299 2189ft 6kts
15-Apr-18 10:15 36.076702 -115.152126 333 2189ft 14kts
15-Apr-18 10:16 36.078735 -115.153342 335 2189ft 19kts
15-Apr-18 10:17 36.082306 -115.154392 332 2189ft 11kts
15-Apr-18 10:18 36.085308 -115.155854 21 2189ft 10kts
15-Apr-18 10:19 36.086884 -115.154241 114 2189ft 6kts
15-Apr-18 10:20 36.086710 -115.153776 114 2189ft 0kts
15-Apr-18 10:21 36.086710 -115.153776 114 2189ft 0kts
15-Apr-18 10:22 36.086710 -115.153776 114 2189ft 0kts
15-Apr-18 10:23 36.086710 -115.153776 114 2189ft 0kts

Navigation Log

Ident Type
Flight plan parsing failed, navigation log unavailable